CDT,Max TemperatureF,Mean TemperatureF,Min TemperatureF,Max Dew PointF,MeanDew PointF,Min DewpointF,Max Humidity, Mean Humidity, Min Humidity, Max Sea Level PressureIn, Mean Sea Level PressureIn, Min Sea Level PressureIn, Max VisibilityMiles, Mean VisibilityMiles, Min VisibilityMiles, Max Wind SpeedMPH, Mean Wind SpeedMPH, Max Gust SpeedMPH,PrecipitationIn, CloudCover, Events, WindDirDegrees
2013-9-1,89,82,73,75,74,72,94,76,55,29.84,29.81,29.78,10,9,4,7,2,,0.00,1,,258
2013-9-2,89,76,62,72,64,61,94,72,40,29.97,29.91,29.84,10,10,10,9,5,,0.00,1,,328
2013-9-3,82,70,57,64,59,55,100,77,42,30.09,30.04,29.97,10,9,0,8,1,,0.00,1,Fog,25
2013-9-4,87,70,53,66,60,54,100,74,33,30.17,30.12,30.08,10,10,5,6,0,,0.00,0,,247
2013-9-5,91,74,57,70,62,57,100,74,36,30.21,30.17,30.14,10,10,3,6,0,,0.00,0,,101
2013-9-6,91,76,60,68,64,61,100,74,38,30.19,30.13,30.04,10,10,5,9,2,,0.00,0,,168
2013-9-7,93,78,62,72,67,63,100,73,41,30.06,29.99,29.92,10,9,4,12,4,17,0.00,0,,198
2013-9-8,89,80,71,75,71,68,100,81,49,29.99,29.94,29.91,10,9,5,8,3,,0.22,0,Rain-Thunderstorm,180
2013-9-9,98,86,73,75,73,70,100,75,42,29.97,29.93,29.90,10,8,3,10,6,,0.00,0,,188
2013-9-10,98,84,71,73,71,66,100,70,35,30.08,30.04,29.97,10,9,5,12,4,17,0.00,0,,212
2013-9-11,96,82,69,73,69,64,100,68,34,30.12,30.07,30.01,10,9,7,12,5,,0.00,0,,222
2013-9-12,86,73,60,72,64,50,100,75,36,30.08,30.03,29.97,10,10,5,14,6,22,0.53,2,Rain-Thunderstorm,308
2013-9-13,75,64,53,59,52,43,100,71,33,30.15,30.11,30.07,10,10,10,13,6,20,0.00,1,,6
2013-9-14,77,62,48,54,48,43,100,66,29,30.17,30.11,30.05,10,10,10,9,4,,0.00,0,,114
2013-9-15,82,66,51,64,55,48,94,68,39,30.12,30.04,29.98,10,10,10,13,6,17,0.00,3,,186
2013-9-16,71,65,59,61,56,54,94,75,56,30.29,30.23,30.12,10,10,5,15,9,22,0.00,5,,42
2013-9-17,78,66,55,59,56,54,94,70,44,30.28,30.19,30.09,10,10,10,12,6,,0.00,3,Rain,106
2013-9-18,87,76,64,72,67,57,100,81,55,30.09,30.03,29.96,10,9,2,14,6,18,0.23,2,Rain-Thunderstorm,163
2013-9-19,95,84,73,73,72,70,100,79,44,29.99,29.93,29.85,10,8,4,13,9,18,0.00,0,Rain,185
2013-9-20,78,69,59,73,67,54,100,92,77,29.91,29.89,29.85,10,9,3,9,6,22,0.46,4,Rain-Thunderstorm,259
2013-9-21,73,62,51,54,52,48,100,76,41,29.94,29.91,29.87,10,10,2,10,5,18,0.00,1,,315
2013-9-22,75,60,46,54,50,46,100,75,36,30.04,29.98,29.94,10,10,10,7,1,,0.00,0,,85
2013-9-23,78,64,50,54,49,45,94,64,30,30.06,30.00,29.96,10,10,10,12,6,10,0.00,0,,114
2013-9-24,82,68,53,61,57,52,94,72,45,29.98,29.91,29.84,10,10,10,9,6,,0.00,1,,108
2013-9-25,86,73,60,64,62,59,100,76,42,29.90,29.86,29.83,10,9,4,7,2,,0.00,1,,69
2013-9-26,87,73,59,64,58,55,94,66,33,30.05,29.99,29.90,10,10,7,8,4,,0.00,0,,101
2013-9-27,86,70,53,59,54,50,100,63,29,30.13,30.07,30.03,10,10,10,10,5,16,0.00,0,,132
2013-9-28,87,73,59,63,59,55,94,65,38,30.07,30.01,29.95,10,10,10,20,8,26,0.00,4,Rain,167
2013-9-29,77,64,51,66,54,43,100,73,31,30.06,30.01,29.98,10,10,4,12,6,17,0.17,2,Rain,350
2013-9-30,80,63,46,64,57,46,100,84,48,30.00,29.95,29.90,10,8,0,12,3,,0.00,2,Fog,173